createdAt,value
2018-03-29T00:00:41.159Z,70.40
2018-03-29T00:01:41.150Z,70.30
2018-03-29T00:02:41.139Z,74.10
2018-03-29T00:03:41.131Z,66.30
2018-03-29T00:04:41.124Z,70.90
2018-03-29T00:05:41.111Z,69.20
2018-03-29T00:06:41.101Z,70.00
2018-03-29T00:07:41.098Z,68.40
2018-03-29T00:08:41.079Z,69.10
2018-03-29T00:09:41.073Z,72.60
2018-03-29T00:10:41.066Z,67.40
2018-03-29T00:11:41.058Z,74.00
2018-03-29T00:12:41.044Z,74.60
2018-03-29T00:13:41.038Z,73.20
2018-03-29T00:14:41.025Z,67.10
2018-03-29T00:15:41.018Z,75.20
2018-03-29T00:16:41.009Z,73.80
2018-03-29T00:17:41.009Z,73.90
2018-03-29T00:18:40.987Z,73.20
2018-03-29T00:19:40.980Z,71.90
2018-03-29T00:20:40.968Z,74.60
2018-03-29T00:21:40.960Z,76.10
2018-03-29T00:22:40.950Z,72.70
2018-03-29T00:23:40.942Z,74.00
2018-03-29T00:24:40.931Z,75.90
2018-03-29T00:25:40.919Z,77.60
2018-03-29T00:26:40.920Z,72.90
2018-03-29T00:27:40.903Z,71.60
2018-03-29T00:28:40.895Z,73.00
2018-03-29T00:29:40.886Z,70.50
2018-03-29T00:30:40.875Z,75.10
2018-03-29T00:31:40.866Z,75.30
2018-03-29T00:32:40.854Z,74.90
2018-03-29T00:33:40.847Z,78.10
2018-03-29T00:34:40.840Z,75.40
2018-03-29T00:35:40.827Z,75.80
2018-03-29T00:36:40.818Z,74.00
2018-03-29T00:37:40.810Z,74.80
2018-03-29T00:38:40.800Z,81.70
2018-03-29T00:39:40.792Z,79.70
2018-03-29T00:40:40.784Z,78.70
2018-03-29T00:41:40.772Z,78.90
2018-03-29T00:42:40.765Z,86.30
2018-03-29T00:43:40.752Z,79.10
2018-03-29T00:44:40.745Z,77.90
2018-03-29T00:45:40.740Z,75.90
2018-03-29T00:46:40.726Z,76.00
2018-03-29T00:47:40.721Z,78.50
2018-03-29T00:48:40.706Z,78.70
2018-03-29T00:49:40.700Z,81.70
2018-03-29T00:50:40.687Z,75.50
2018-03-29T00:51:40.678Z,75.90
2018-03-29T00:52:40.670Z,82.30
2018-03-29T00:53:40.660Z,79.80
2018-03-29T00:54:40.647Z,79.30
2018-03-29T00:55:40.641Z,76.50
2018-03-29T00:56:40.632Z,74.90
2018-03-29T00:57:40.628Z,77.90
2018-03-29T00:58:40.614Z,76.00
2018-03-29T00:59:40.604Z,75.60
2018-03-29T01:00:40.596Z,78.30
2018-03-29T01:01:40.585Z,80.20
2018-03-29T01:02:40.577Z,77.70
2018-03-29T01:03:40.568Z,79.90
2018-03-29T01:04:40.559Z,81.90
2018-03-29T01:05:40.549Z,81.00
2018-03-29T01:06:40.539Z,82.10
2018-03-29T01:07:40.528Z,85.30
2018-03-29T01:08:40.521Z,86.70
2018-03-29T01:09:40.513Z,84.30
2018-03-29T01:10:40.505Z,77.90
2018-03-29T01:11:40.493Z,87.30
2018-03-29T01:12:40.487Z,87.80
2018-03-29T01:13:40.472Z,81.50
2018-03-29T01:14:40.466Z,78.70
2018-03-29T01:15:40.460Z,87.50
2018-03-29T01:16:40.447Z,85.90
2018-03-29T01:17:40.440Z,88.00
2018-03-29T01:18:40.427Z,78.90
2018-03-29T01:19:40.418Z,87.00
2018-03-29T01:20:40.412Z,88.70
2018-03-29T01:21:40.401Z,88.90
2018-03-29T01:22:40.393Z,85.00
2018-03-29T01:23:40.381Z,88.50
2018-03-29T01:24:40.372Z,81.10
2018-03-29T01:25:40.364Z,82.00
2018-03-29T01:26:40.351Z,80.80
2018-03-29T01:27:40.348Z,76.70
2018-03-29T01:28:40.336Z,76.90
2018-03-29T01:29:40.331Z,70.20
2018-03-29T01:30:40.329Z,69.40
2018-03-29T01:31:40.310Z,69.90
2018-03-29T01:32:40.295Z,73.60
2018-03-29T01:33:40.291Z,70.70
2018-03-29T01:34:40.282Z,67.30
2018-03-29T01:35:40.274Z,67.30
2018-03-29T01:36:40.261Z,69.20
2018-03-29T01:37:40.257Z,72.30
2018-03-29T01:38:40.250Z,66.10
2018-03-29T01:39:40.232Z,65.70
2018-03-29T01:40:40.231Z,64.20
2018-03-29T01:41:40.224Z,61.70
2018-03-29T01:42:40.210Z,60.60
2018-03-29T01:43:40.208Z,63.50
2018-03-29T01:44:40.193Z,62.20
2018-03-29T01:45:40.184Z,60.60
2018-03-29T01:46:40.174Z,61.50
2018-03-29T01:47:40.170Z,59.20
2018-03-29T01:48:40.158Z,57.70
2018-03-29T01:49:40.151Z,60.30
2018-03-29T01:50:40.139Z,57.50
2018-03-29T01:51:40.131Z,55.80
2018-03-29T01:52:40.119Z,61.10
2018-03-29T01:53:40.115Z,61.30
2018-03-29T01:54:40.104Z,60.00
2018-03-29T01:55:40.094Z,58.30
2018-03-29T01:56:40.090Z,58.90
2018-03-29T01:57:40.079Z,59.40
2018-03-29T01:58:40.070Z,60.30
2018-03-29T01:59:40.067Z,61.10
2018-03-29T02:00:40.053Z,61.50
2018-03-29T02:01:40.045Z,61.90
2018-03-29T02:02:40.035Z,63.50
2018-03-29T02:03:40.034Z,63.40
2018-03-29T02:04:40.025Z,61.00
2018-03-29T02:05:40.010Z,62.10
2018-03-29T02:06:40.001Z,57.10
2018-03-29T02:07:39.991Z,56.30
2018-03-29T02:08:39.982Z,58.30
2018-03-29T02:09:39.974Z,57.50
2018-03-29T02:10:39.962Z,56.50
2018-03-29T02:11:39.967Z,55.00
2018-03-29T02:12:39.947Z,58.10
2018-03-29T02:13:39.940Z,59.30
2018-03-29T02:14:39.930Z,57.20
2018-03-29T02:15:39.923Z,59.60
2018-03-29T02:16:39.917Z,58.80
2018-03-29T02:17:39.905Z,62.70
2018-03-29T02:18:39.896Z,67.10
2018-03-29T02:19:39.915Z,61.10
2018-03-29T02:20:39.883Z,59.10
2018-03-29T02:21:39.873Z,63.10
2018-03-29T02:22:39.862Z,58.70
2018-03-29T02:23:39.861Z,57.80
2018-03-29T02:24:39.845Z,56.60
2018-03-29T02:25:39.835Z,56.80
2018-03-29T02:26:39.827Z,58.00
2018-03-29T02:27:39.820Z,58.20
2018-03-29T02:28:39.814Z,57.40
2018-03-29T02:29:39.812Z,56.20
2018-03-29T02:30:39.794Z,57.70
2018-03-29T02:31:39.788Z,62.60
2018-03-29T02:32:39.774Z,57.90
2018-03-29T02:33:39.767Z,58.50
2018-03-29T02:34:39.761Z,57.60
2018-03-29T02:35:39.752Z,58.10
2018-03-29T02:36:39.744Z,60.00
2018-03-29T02:37:39.736Z,57.20
2018-03-29T02:38:39.729Z,59.40
2018-03-29T02:39:39.718Z,61.00
2018-03-29T02:40:39.710Z,59.30
2018-03-29T02:41:39.703Z,58.20
2018-03-29T02:42:39.697Z,61.30
2018-03-29T02:43:39.706Z,63.40
2018-03-29T02:44:39.676Z,62.80
2018-03-29T02:45:39.668Z,61.40
2018-03-29T02:46:39.659Z,61.30
2018-03-29T02:47:39.662Z,60.20
2018-03-29T02:48:39.643Z,65.90
2018-03-29T02:49:39.634Z,67.60
2018-03-29T02:50:39.625Z,66.80
2018-03-29T02:51:39.617Z,62.90
2018-03-29T02:52:39.608Z,65.00
2018-03-29T02:53:39.599Z,64.60
2018-03-29T02:54:39.592Z,64.30
2018-03-29T02:55:39.584Z,65.30
2018-03-29T02:56:39.575Z,64.70
2018-03-29T02:57:39.571Z,64.10
2018-03-29T02:58:39.559Z,65.50
2018-03-29T02:59:39.550Z,63.70
2018-03-29T03:00:39.542Z,67.70
2018-03-29T03:01:39.536Z,71.20
2018-03-29T03:02:39.524Z,68.00
2018-03-29T03:03:39.516Z,75.40
2018-03-29T03:04:39.507Z,70.00
2018-03-29T03:05:39.500Z,64.90
2018-03-29T03:06:39.488Z,68.50
2018-03-29T03:07:39.486Z,70.70
2018-03-29T03:08:39.474Z,76.50
2018-03-29T03:09:39.469Z,73.80
2018-03-29T03:10:39.460Z,71.10
2018-03-29T03:11:39.450Z,72.20
2018-03-29T03:12:39.443Z,68.50
2018-03-29T03:13:39.432Z,68.70
2018-03-29T03:14:39.426Z,69.00
2018-03-29T03:15:39.419Z,68.80
2018-03-29T03:16:39.410Z,70.90
2018-03-29T03:17:39.402Z,71.70
2018-03-29T03:18:39.390Z,75.00
2018-03-29T03:19:39.387Z,71.20
2018-03-29T03:20:39.375Z,72.30
2018-03-29T03:21:39.371Z,71.60
2018-03-29T03:22:39.357Z,73.30
2018-03-29T03:23:39.359Z,68.30
2018-03-29T03:24:39.356Z,67.90
2018-03-29T03:25:39.336Z,66.60
2018-03-29T03:26:39.334Z,65.60
2018-03-29T03:27:39.318Z,65.30
2018-03-29T03:28:39.313Z,63.70
2018-03-29T03:29:39.307Z,64.20
2018-03-29T03:30:39.307Z,62.80
2018-03-29T03:31:39.292Z,59.80
2018-03-29T03:32:39.281Z,61.70
2018-03-29T03:33:39.274Z,56.60
2018-03-29T03:34:39.263Z,54.30
2018-03-29T03:35:39.257Z,53.10
2018-03-29T03:36:39.248Z,50.60
2018-03-29T03:37:39.242Z,49.90
2018-03-29T03:38:39.237Z,46.50
2018-03-29T03:39:39.228Z,43.60
2018-03-29T03:40:39.218Z,41.50
2018-03-29T03:41:39.208Z,43.60
2018-03-29T03:42:39.202Z,42.00
2018-03-29T03:43:39.195Z,40.10
2018-03-29T03:44:39.188Z,41.20
2018-03-29T03:45:39.181Z,40.00
2018-03-29T03:46:39.171Z,39.40
2018-03-29T03:47:39.164Z,41.00
2018-03-29T03:48:39.154Z,38.40
2018-03-29T03:49:39.147Z,37.60
2018-03-29T03:50:39.139Z,33.80
2018-03-29T03:51:39.131Z,36.80
2018-03-29T03:52:39.123Z,36.60
2018-03-29T03:53:39.116Z,36.10
2018-03-29T03:54:39.107Z,36.00
2018-03-29T03:55:39.097Z,30.70
2018-03-29T03:56:39.092Z,29.00
2018-03-29T03:57:39.084Z,28.70
2018-03-29T03:58:39.076Z,33.00
2018-03-29T03:59:39.069Z,31.20
2018-03-29T04:00:39.061Z,31.10
2018-03-29T04:01:39.052Z,29.10
2018-03-29T04:02:39.042Z,29.60
2018-03-29T04:03:39.037Z,29.60
2018-03-29T04:04:39.043Z,27.70
2018-03-29T04:05:39.022Z,28.80
2018-03-29T04:06:39.015Z,29.90
2018-03-29T04:07:39.014Z,26.80
2018-03-29T04:08:39.002Z,26.80
2018-03-29T04:09:38.987Z,25.80
2018-03-29T04:10:38.982Z,26.70
2018-03-29T04:11:38.974Z,26.40
2018-03-29T04:12:38.967Z,23.30
2018-03-29T04:13:38.959Z,25.30
2018-03-29T04:14:38.952Z,26.40
2018-03-29T04:15:38.942Z,25.00
2018-03-29T04:16:38.932Z,23.50
2018-03-29T04:17:38.928Z,22.50
2018-03-29T04:18:38.920Z,22.50
2018-03-29T04:19:38.912Z,23.20
2018-03-29T04:20:38.904Z,22.70
2018-03-29T04:21:38.898Z,17.20
2018-03-29T04:22:38.886Z,21.20
2018-03-29T04:23:38.876Z,20.00
2018-03-29T04:24:38.918Z,20.40
2018-03-29T04:25:38.869Z,20.50
2018-03-29T04:26:38.856Z,19.90
2018-03-29T04:27:38.844Z,20.40
2018-03-29T04:28:38.845Z,20.80
2018-03-29T04:29:38.835Z,21.60
2018-03-29T04:30:38.830Z,20.00
2018-03-29T04:31:38.818Z,19.30
2018-03-29T04:32:38.810Z,19.20
2018-03-29T04:33:38.802Z,19.00
2018-03-29T04:34:38.795Z,17.80
2018-03-29T04:35:38.787Z,16.10
2018-03-29T04:36:38.777Z,17.90
2018-03-29T04:37:38.771Z,18.50
2018-03-29T04:38:38.762Z,18.20
2018-03-29T04:39:38.756Z,17.50
2018-03-29T04:40:38.746Z,16.10
2018-03-29T04:41:38.744Z,16.10
2018-03-29T04:42:38.729Z,14.50
2018-03-29T04:43:38.721Z,14.00
2018-03-29T04:44:38.711Z,15.40
2018-03-29T04:45:38.707Z,16.00
2018-03-29T04:46:38.697Z,15.30
2018-03-29T04:47:38.689Z,15.80
2018-03-29T04:48:38.684Z,15.30
2018-03-29T04:49:38.671Z,14.90
2018-03-29T04:50:38.665Z,15.00
2018-03-29T04:51:38.654Z,14.90
2018-03-29T04:52:38.651Z,15.60
2018-03-29T04:53:38.640Z,16.40
2018-03-29T04:54:38.634Z,17.10
2018-03-29T04:55:38.628Z,16.60
2018-03-29T04:56:38.617Z,17.10
2018-03-29T04:57:38.613Z,17.00
2018-03-29T04:58:38.598Z,17.60
2018-03-29T04:59:38.596Z,19.30
2018-03-29T05:00:38.581Z,18.00
2018-03-29T05:01:38.578Z,17.30
2018-03-29T05:02:38.571Z,18.30
2018-03-29T05:03:38.557Z,18.00
2018-03-29T05:04:38.554Z,18.90
2018-03-29T05:05:38.541Z,18.30
2018-03-29T05:06:38.539Z,17.50
2018-03-29T05:07:38.546Z,18.40
2018-03-29T05:08:38.520Z,19.10
2018-03-29T05:09:38.520Z,17.40
2018-03-29T05:10:38.498Z,17.20
2018-03-29T05:11:38.495Z,18.30
2018-03-29T05:12:38.486Z,16.80
2018-03-29T05:13:38.482Z,15.50
2018-03-29T05:14:38.471Z,16.50
2018-03-29T05:15:38.464Z,15.70
2018-03-29T05:16:38.458Z,16.10
2018-03-29T05:17:38.443Z,16.10
2018-03-29T05:18:38.438Z,16.10
2018-03-29T05:19:38.429Z,16.30
2018-03-29T05:20:38.423Z,16.10
2018-03-29T05:21:38.415Z,15.90
2018-03-29T05:22:38.408Z,15.20
2018-03-29T05:23:38.406Z,15.00
2018-03-29T05:24:38.390Z,14.40
2018-03-29T05:25:38.384Z,14.40
2018-03-29T05:26:38.377Z,14.90
2018-03-29T05:27:38.366Z,14.70
2018-03-29T05:28:38.359Z,15.00
2018-03-29T05:29:38.350Z,14.70
2018-03-29T05:30:38.339Z,13.30
2018-03-29T05:31:38.356Z,14.00
2018-03-29T05:32:38.324Z,14.10
2018-03-29T05:33:38.319Z,14.00
2018-03-29T05:34:38.308Z,13.00
2018-03-29T05:35:38.302Z,12.40
2018-03-29T05:36:38.293Z,11.60
2018-03-29T05:37:38.286Z,10.90
2018-03-29T05:38:38.279Z,10.10
2018-03-29T05:39:38.552Z,10.00
2018-03-29T05:40:38.261Z,10.70
2018-03-29T05:41:38.254Z,10.00
2018-03-29T05:42:38.245Z,10.50
2018-03-29T05:43:38.240Z,11.50
2018-03-29T05:44:38.229Z,11.80
2018-03-29T05:45:38.219Z,10.30
2018-03-29T05:46:38.212Z,12.40
2018-03-29T05:47:38.205Z,10.80
2018-03-29T05:48:38.197Z,10.50
2018-03-29T05:49:38.187Z,10.40
2018-03-29T05:50:38.176Z,10.40
2018-03-29T05:51:38.171Z,10.50
2018-03-29T05:52:38.163Z,10.80
2018-03-29T05:53:38.155Z,10.60
2018-03-29T05:54:38.146Z,11.00
2018-03-29T05:55:38.143Z,10.20
2018-03-29T05:56:38.134Z,10.20
2018-03-29T05:57:38.162Z,10.50
2018-03-29T05:58:38.115Z,10.20
2018-03-29T05:59:38.106Z,9.40
2018-03-29T06:00:38.095Z,8.60
2018-03-29T06:01:38.093Z,8.10
2018-03-29T06:02:38.092Z,8.10
2018-03-29T06:03:38.077Z,7.80
2018-03-29T06:04:38.066Z,7.60
2018-03-29T06:05:38.058Z,7.20
2018-03-29T06:06:38.048Z,7.20
2018-03-29T06:07:38.038Z,7.20
2018-03-29T06:08:38.033Z,6.90
2018-03-29T06:09:38.028Z,6.80
2018-03-29T06:10:38.017Z,6.50
2018-03-29T06:11:38.011Z,5.80
2018-03-29T06:12:38.006Z,5.70
2018-03-29T06:13:37.994Z,5.40
2018-03-29T06:14:37.982Z,6.10
2018-03-29T06:15:37.976Z,5.40
2018-03-29T06:16:37.970Z,5.30
2018-03-29T06:17:37.960Z,5.40
2018-03-29T06:18:37.954Z,6.40
2018-03-29T06:19:37.944Z,5.40
2018-03-29T06:20:37.936Z,5.50
2018-03-29T06:21:37.925Z,5.50
2018-03-29T06:22:37.918Z,5.10
2018-03-29T06:23:37.912Z,5.10
2018-03-29T06:24:37.903Z,5.00
2018-03-29T06:25:37.899Z,5.20
2018-03-29T06:26:37.885Z,5.40
2018-03-29T06:27:37.879Z,5.10
2018-03-29T06:28:37.869Z,5.20
2018-03-29T06:29:37.865Z,5.20
2018-03-29T06:30:37.854Z,5.10
2018-03-29T06:31:37.846Z,5.70
2018-03-29T06:32:37.845Z,4.90
2018-03-29T06:33:37.833Z,5.00
2018-03-29T06:34:37.825Z,5.20
2018-03-29T06:35:37.813Z,4.90
2018-03-29T06:36:37.806Z,4.80
2018-03-29T06:37:37.801Z,5.00
2018-03-29T06:38:37.797Z,5.20
2018-03-29T06:39:37.786Z,5.20
2018-03-29T06:40:37.775Z,4.90
2018-03-29T06:41:37.766Z,5.10
2018-03-29T06:42:37.761Z,5.50
2018-03-29T06:43:37.750Z,5.10
2018-03-29T06:44:37.743Z,5.60
2018-03-29T06:45:37.734Z,5.10
2018-03-29T06:46:37.734Z,5.00
2018-03-29T06:47:37.719Z,5.50
2018-03-29T06:48:37.712Z,5.20
2018-03-29T06:49:37.701Z,5.30
2018-03-29T06:50:37.695Z,5.10
2018-03-29T06:51:37.686Z,5.50
2018-03-29T06:52:37.679Z,5.00
2018-03-29T06:53:37.677Z,5.30
2018-03-29T06:54:37.662Z,5.00
2018-03-29T06:55:37.656Z,5.30
2018-03-29T06:56:37.644Z,4.90
2018-03-29T06:57:37.642Z,5.00
2018-03-29T06:58:37.631Z,5.00
2018-03-29T06:59:37.659Z,5.30
2018-03-29T07:00:37.623Z,4.70
2018-03-29T07:01:37.607Z,4.70
2018-03-29T07:02:37.598Z,4.80
2018-03-29T07:03:37.594Z,5.30
2018-03-29T07:04:37.603Z,5.00
2018-03-29T07:05:37.576Z,4.80
2018-03-29T07:06:37.567Z,4.70
2018-03-29T07:07:37.567Z,4.50
2018-03-29T07:08:37.557Z,4.40
2018-03-29T07:09:37.543Z,4.50
2018-03-29T07:10:37.535Z,4.50
2018-03-29T07:11:37.529Z,4.50
2018-03-29T07:12:37.521Z,4.40
2018-03-29T07:13:37.512Z,4.20
2018-03-29T07:14:37.508Z,4.60
2018-03-29T07:15:37.502Z,4.00
2018-03-29T07:16:37.492Z,3.90
2018-03-29T07:17:37.483Z,4.20
2018-03-29T07:18:37.475Z,4.00
2018-03-29T07:19:37.467Z,4.00
2018-03-29T07:20:37.462Z,4.10
2018-03-29T07:21:37.456Z,4.30
2018-03-29T07:22:37.443Z,4.30
2018-03-29T07:23:37.436Z,4.50
2018-03-29T07:24:37.429Z,4.40
2018-03-29T07:25:37.421Z,3.90
2018-03-29T07:26:37.413Z,4.10
2018-03-29T07:27:37.408Z,4.40
2018-03-29T07:28:37.400Z,4.10
2018-03-29T07:29:37.389Z,4.50
2018-03-29T07:30:37.426Z,4.20
2018-03-29T07:31:37.371Z,4.40
2018-03-29T07:32:37.369Z,4.20
2018-03-29T07:33:37.359Z,4.00
2018-03-29T07:34:37.351Z,4.40
2018-03-29T07:35:37.346Z,4.30
2018-03-29T07:36:37.363Z,4.10
2018-03-29T07:37:37.329Z,4.10
2018-03-29T07:38:37.319Z,4.40
2018-03-29T07:39:37.317Z,4.10
2018-03-29T07:40:37.307Z,4.00
2018-03-29T07:41:37.296Z,4.20
2018-03-29T07:42:37.289Z,3.90
2018-03-29T07:43:37.280Z,4.00
2018-03-29T07:44:37.276Z,3.90
2018-03-29T07:45:37.265Z,3.90
2018-03-29T07:46:37.258Z,3.80
2018-03-29T07:47:37.252Z,3.90
2018-03-29T07:48:37.244Z,4.10
2018-03-29T07:49:37.239Z,3.70
2018-03-29T07:50:37.229Z,3.60
2018-03-29T07:51:37.221Z,3.50
2018-03-29T07:52:37.216Z,3.50
2018-03-29T07:53:37.207Z,3.70
2018-03-29T07:54:37.198Z,3.60
2018-03-29T07:55:37.193Z,3.60
2018-03-29T07:56:37.185Z,3.40
2018-03-29T07:57:37.186Z,3.40
2018-03-29T07:58:37.170Z,3.40
2018-03-29T07:59:37.181Z,3.40
2018-03-29T08:00:37.361Z,3.40
2018-03-29T08:01:37.145Z,3.20
2018-03-29T08:02:37.141Z,3.20
2018-03-29T08:03:37.133Z,3.40
2018-03-29T08:04:37.132Z,3.20
2018-03-29T08:05:37.118Z,3.20
2018-03-29T08:06:37.109Z,3.30
2018-03-29T08:07:37.100Z,3.30
2018-03-29T08:08:37.100Z,3.50
2018-03-29T08:09:37.094Z,3.10
2018-03-29T08:10:37.082Z,3.10
2018-03-29T08:11:37.124Z,3.20
2018-03-29T08:12:37.067Z,3.40
2018-03-29T08:13:37.057Z,3.50
2018-03-29T08:14:37.076Z,3.20
2018-03-29T08:15:37.049Z,3.20
2018-03-29T08:16:37.039Z,2.90
2018-03-29T08:17:37.037Z,3.10
2018-03-29T08:18:37.025Z,2.90
2018-03-29T08:19:37.017Z,2.90
2018-03-29T08:20:37.008Z,2.70
2018-03-29T08:21:37.003Z,2.80
2018-03-29T08:22:36.993Z,2.70
2018-03-29T08:23:36.987Z,2.90
2018-03-29T08:24:36.981Z,2.70
2018-03-29T08:25:36.976Z,2.70
2018-03-29T08:26:36.977Z,2.80
2018-03-29T08:27:36.959Z,2.90
2018-03-29T08:28:36.953Z,3.00
2018-03-29T08:29:36.944Z,2.90
2018-03-29T08:30:36.944Z,3.10
2018-03-29T08:31:36.930Z,3.10
2018-03-29T08:32:36.932Z,3.40
2018-03-29T08:33:36.916Z,3.40
2018-03-29T08:34:36.914Z,3.40
2018-03-29T08:35:36.947Z,3.40
2018-03-29T08:36:36.900Z,3.30
2018-03-29T08:37:36.886Z,3.40
2018-03-29T08:38:36.936Z,3.30
2018-03-29T08:39:36.873Z,3.10
2018-03-29T08:40:36.920Z,3.30
2018-03-29T08:41:36.859Z,3.30
2018-03-29T08:42:36.852Z,3.30
2018-03-29T08:43:36.840Z,3.10
2018-03-29T08:44:36.836Z,3.10
2018-03-29T08:45:36.831Z,3.30
2018-03-29T08:46:36.826Z,3.40
2018-03-29T08:47:36.818Z,3.10
2018-03-29T08:48:36.811Z,3.20
2018-03-29T08:49:36.803Z,2.80
2018-03-29T08:50:36.799Z,2.70
2018-03-29T08:51:36.789Z,2.80
2018-03-29T08:52:36.783Z,2.90
2018-03-29T08:53:36.776Z,3.10
2018-03-29T08:54:36.769Z,2.90
2018-03-29T08:55:36.763Z,3.00
2018-03-29T08:56:36.762Z,2.90
2018-03-29T08:57:36.752Z,2.90
2018-03-29T08:58:36.750Z,3.00
2018-03-29T08:59:36.731Z,2.70
2018-03-29T09:00:36.740Z,2.80
2018-03-29T09:01:36.724Z,2.50
2018-03-29T09:02:36.717Z,2.50
2018-03-29T09:03:36.710Z,2.40
2018-03-29T09:04:36.707Z,2.30
2018-03-29T09:05:36.698Z,2.50
2018-03-29T09:06:36.691Z,2.30
2018-03-29T09:07:36.687Z,2.60
2018-03-29T09:08:36.678Z,2.50
2018-03-29T09:09:36.671Z,2.60
2018-03-29T09:10:36.666Z,2.50
2018-03-29T09:11:36.658Z,2.80
2018-03-29T09:12:36.659Z,2.70
2018-03-29T09:13:36.645Z,2.90
2018-03-29T09:14:36.640Z,2.80
2018-03-29T09:15:36.633Z,2.60
2018-03-29T09:16:36.635Z,2.60
2018-03-29T09:17:36.623Z,2.50
2018-03-29T09:18:36.615Z,2.70
2018-03-29T09:19:36.609Z,2.30
2018-03-29T09:20:36.602Z,2.60
2018-03-29T09:21:36.594Z,2.70
2018-03-29T09:22:36.591Z,2.70
2018-03-29T09:23:36.583Z,2.60
2018-03-29T09:24:36.578Z,2.50
2018-03-29T09:25:36.576Z,2.40
2018-03-29T09:26:36.571Z,2.60
2018-03-29T09:27:36.560Z,2.50
2018-03-29T09:28:36.554Z,2.40
2018-03-29T09:29:36.547Z,2.10
2018-03-29T09:30:36.544Z,2.00
2018-03-29T09:31:36.536Z,2.10
2018-03-29T09:32:36.532Z,2.10
2018-03-29T09:33:36.528Z,2.10
2018-03-29T09:34:36.515Z,1.90
2018-03-29T09:35:36.558Z,2.00
2018-03-29T09:36:36.507Z,2.00
2018-03-29T09:37:36.503Z,2.00
2018-03-29T09:38:36.493Z,2.10
2018-03-29T09:39:36.489Z,2.00
2018-03-29T09:40:36.486Z,2.10
2018-03-29T09:41:36.524Z,1.90
2018-03-29T09:42:36.474Z,2.00
2018-03-29T09:43:36.468Z,1.90
2018-03-29T09:44:36.471Z,2.10
2018-03-29T09:45:36.459Z,2.00
2018-03-29T09:46:36.450Z,2.00
2018-03-29T09:47:36.442Z,1.80
2018-03-29T09:48:36.439Z,2.00
2018-03-29T09:49:36.433Z,2.30
2018-03-29T09:50:36.427Z,2.60
2018-03-29T09:51:36.421Z,2.60
2018-03-29T09:52:36.420Z,2.70
2018-03-29T09:53:36.408Z,2.80
2018-03-29T09:54:36.405Z,3.10
2018-03-29T09:55:36.393Z,3.00
2018-03-29T09:56:36.391Z,3.20
2018-03-29T09:57:36.387Z,3.10
2018-03-29T09:58:36.385Z,3.40
2018-03-29T09:59:36.378Z,3.30
2018-03-29T10:00:36.373Z,3.50
2018-03-29T10:01:36.365Z,3.60
2018-03-29T10:02:36.356Z,3.70
2018-03-29T10:03:36.354Z,3.50
2018-03-29T10:04:36.347Z,3.90
2018-03-29T10:05:36.339Z,4.10
2018-03-29T10:06:36.336Z,3.90
2018-03-29T10:07:36.328Z,4.00
2018-03-29T10:08:36.323Z,3.80
2018-03-29T10:09:36.317Z,3.80
2018-03-29T10:10:36.308Z,3.60
2018-03-29T10:11:36.304Z,3.40
2018-03-29T10:12:36.296Z,3.70
2018-03-29T10:13:36.292Z,3.40
2018-03-29T10:14:36.285Z,3.60
2018-03-29T10:15:36.276Z,3.60
2018-03-29T10:16:36.275Z,3.60
2018-03-29T10:17:36.268Z,3.50
2018-03-29T10:18:36.259Z,3.60
2018-03-29T10:19:36.256Z,3.60
2018-03-29T10:20:36.253Z,3.60
2018-03-29T10:21:36.247Z,3.90
2018-03-29T10:22:36.239Z,3.90
2018-03-29T10:23:36.234Z,3.70
2018-03-29T10:24:36.240Z,3.50
2018-03-29T10:25:36.221Z,3.50
2018-03-29T10:26:36.219Z,3.80
2018-03-29T10:27:36.209Z,3.60
2018-03-29T10:28:36.204Z,3.60
2018-03-29T10:29:36.196Z,3.30
2018-03-29T10:30:36.192Z,3.00
2018-03-29T10:31:36.185Z,3.30
2018-03-29T10:32:36.181Z,3.00
2018-03-29T10:33:36.177Z,3.10
2018-03-29T10:34:36.168Z,3.50
2018-03-29T10:35:36.163Z,3.30
2018-03-29T10:36:36.153Z,3.40
2018-03-29T10:37:36.155Z,3.20
2018-03-29T10:38:36.147Z,3.10
2018-03-29T10:39:36.141Z,3.30
2018-03-29T10:40:36.135Z,3.10
2018-03-29T10:41:36.135Z,2.50
2018-03-29T10:42:36.131Z,2.60
2018-03-29T10:43:36.118Z,2.40
2018-03-29T10:44:36.113Z,2.50
2018-03-29T10:45:36.106Z,2.70
2018-03-29T10:46:36.112Z,2.70
2018-03-29T10:47:36.101Z,2.70
2018-03-29T10:48:36.088Z,2.70
2018-03-29T10:49:36.086Z,2.50
2018-03-29T10:50:36.078Z,2.50
2018-03-29T10:51:36.076Z,2.60
2018-03-29T10:52:36.067Z,2.50
2018-03-29T10:53:36.061Z,2.60
2018-03-29T10:54:36.059Z,2.60
2018-03-29T10:55:36.059Z,2.50
2018-03-29T10:56:36.046Z,2.40
2018-03-29T10:57:36.041Z,2.50
2018-03-29T10:58:36.037Z,2.40
2018-03-29T10:59:36.031Z,2.30
2018-03-29T11:00:36.028Z,2.60
2018-03-29T11:01:36.016Z,2.70
2018-03-29T11:02:36.014Z,2.20
2018-03-29T11:03:36.008Z,2.40
2018-03-29T11:04:36.009Z,2.40
2018-03-29T11:05:35.998Z,2.30
2018-03-29T11:06:35.994Z,2.50
2018-03-29T11:07:35.989Z,2.50
2018-03-29T11:08:35.982Z,2.40
2018-03-29T11:09:35.979Z,2.40
2018-03-29T11:10:35.971Z,2.30
2018-03-29T11:11:35.970Z,2.10
2018-03-29T11:12:35.962Z,2.40
2018-03-29T11:13:35.959Z,2.20
2018-03-29T11:14:35.954Z,2.30
2018-03-29T11:15:35.952Z,2.30
2018-03-29T11:16:35.949Z,2.50
2018-03-29T11:17:35.939Z,2.30
2018-03-29T11:18:35.936Z,2.40
2018-03-29T11:19:35.929Z,2.20
2018-03-29T11:20:35.924Z,2.30
2018-03-29T11:21:35.924Z,2.30
2018-03-29T11:22:35.915Z,2.20
2018-03-29T11:23:35.920Z,2.20
2018-03-29T11:24:35.912Z,2.20
2018-03-29T11:25:35.902Z,2.30
2018-03-29T11:26:35.901Z,2.20
2018-03-29T11:27:35.895Z,2.20
2018-03-29T11:28:35.886Z,2.10
2018-03-29T11:29:35.887Z,2.20
2018-03-29T11:30:35.882Z,2.40
2018-03-29T11:31:35.876Z,2.00
2018-03-29T11:32:35.872Z,2.20
2018-03-29T11:33:35.868Z,2.30
2018-03-29T11:34:35.861Z,2.10
2018-03-29T11:35:35.858Z,2.30
2018-03-29T11:36:35.853Z,2.60
2018-03-29T11:37:35.851Z,2.60
2018-03-29T11:38:35.846Z,2.60
2018-03-29T11:39:35.841Z,2.70
2018-03-29T11:40:35.836Z,2.70
2018-03-29T11:41:35.832Z,2.70
2018-03-29T11:42:35.829Z,2.70
2018-03-29T11:43:35.822Z,2.70
2018-03-29T11:44:35.820Z,2.50
2018-03-29T11:45:35.814Z,2.70
2018-03-29T11:46:35.803Z,2.60
2018-03-29T11:47:35.804Z,2.90
2018-03-29T11:48:35.801Z,2.40
2018-03-29T11:49:35.797Z,2.70
2018-03-29T11:50:35.790Z,2.70
2018-03-29T11:51:35.793Z,2.70
2018-03-29T11:52:35.790Z,2.60
2018-03-29T11:53:35.778Z,2.80
2018-03-29T11:54:35.769Z,2.60
2018-03-29T11:55:35.760Z,2.70
2018-03-29T11:56:35.761Z,2.70
2018-03-29T11:57:35.756Z,2.90
2018-03-29T11:58:35.757Z,2.50
2018-03-29T11:59:35.746Z,2.60
2018-03-29T12:00:35.743Z,2.80
2018-03-29T12:01:35.735Z,2.70
2018-03-29T12:02:35.730Z,2.60
2018-03-29T12:03:35.734Z,2.40
2018-03-29T12:04:35.720Z,2.60
2018-03-29T12:05:35.717Z,2.90
2018-03-29T12:06:35.709Z,2.70
2018-03-29T12:07:35.704Z,2.70
2018-03-29T12:08:35.700Z,2.70
2018-03-29T12:09:35.752Z,2.90
2018-03-29T12:10:35.692Z,2.80
2018-03-29T12:11:35.685Z,2.70
2018-03-29T12:12:35.683Z,2.80
2018-03-29T12:13:35.676Z,2.90
2018-03-29T12:14:35.669Z,3.00
2018-03-29T12:15:35.669Z,2.70
2018-03-29T12:16:35.661Z,3.00
2018-03-29T12:17:35.658Z,2.90
2018-03-29T12:18:35.653Z,2.80
2018-03-29T12:19:35.655Z,3.00
2018-03-29T12:20:35.642Z,3.30
2018-03-29T12:21:35.637Z,3.10
2018-03-29T12:22:35.635Z,3.20
2018-03-29T12:23:35.627Z,3.00
2018-03-29T12:24:35.661Z,3.00
2018-03-29T12:25:35.636Z,3.30
2018-03-29T12:26:35.614Z,3.40
2018-03-29T12:27:35.615Z,3.20
2018-03-29T12:28:35.603Z,3.20
2018-03-29T12:29:35.600Z,2.90
2018-03-29T12:30:35.618Z,3.10
2018-03-29T12:31:35.588Z,3.00
2018-03-29T12:32:35.584Z,3.10
2018-03-29T12:33:35.582Z,3.10
2018-03-29T12:34:35.574Z,3.10
2018-03-29T12:35:35.580Z,3.00
2018-03-29T12:36:35.565Z,3.20
2018-03-29T12:37:35.560Z,3.30
2018-03-29T12:38:35.563Z,3.10
2018-03-29T12:39:35.581Z,3.50
2018-03-29T12:40:35.552Z,3.20
2018-03-29T12:41:35.544Z,3.60
2018-03-29T12:42:35.538Z,3.30
2018-03-29T12:43:35.535Z,3.30
2018-03-29T12:44:35.531Z,3.40
2018-03-29T12:45:35.526Z,3.10
2018-03-29T12:46:35.539Z,3.60
2018-03-29T12:47:35.516Z,3.60
2018-03-29T12:48:35.513Z,3.40
2018-03-29T12:49:35.506Z,3.30
2018-03-29T12:50:35.507Z,3.40
2018-03-29T12:51:35.497Z,3.30
2018-03-29T12:52:35.495Z,3.60
2018-03-29T12:53:35.493Z,3.70
2018-03-29T12:54:35.490Z,3.50
2018-03-29T12:55:35.514Z,3.60
2018-03-29T12:56:35.478Z,3.60
2018-03-29T12:57:35.525Z,3.60
2018-03-29T12:58:35.463Z,3.50
2018-03-29T12:59:35.468Z,3.70
2018-03-29T13:00:35.465Z,3.50
2018-03-29T13:01:35.492Z,3.40
2018-03-29T13:02:35.456Z,3.60
2018-03-29T13:03:35.448Z,3.60
2018-03-29T13:04:35.452Z,3.70
2018-03-29T13:05:35.438Z,3.60
2018-03-29T13:06:35.435Z,3.80